createdAt,value
2022-11-18T00:04:26.479Z,7.07
2022-11-18T00:09:57.475Z,7.00
2022-11-18T00:15:21.785Z,7.02
2022-11-18T00:21:02.853Z,7.04
2022-11-18T00:26:30.684Z,7.03
2022-11-18T00:32:12.629Z,7.04
2022-11-18T00:37:37.144Z,7.03
2022-11-18T00:43:19.399Z,7.00
2022-11-18T00:48:46.396Z,7.01
2022-11-18T00:54:11.418Z,7.00
2022-11-18T00:59:43.509Z,7.02
2022-11-18T01:05:18.392Z,7.01
2022-11-18T01:10:42.340Z,6.97
2022-11-18T01:16:11.162Z,7.02
2022-11-18T01:21:42.217Z,7.04
2022-11-18T01:27:22.238Z,7.02
2022-11-18T01:32:47.218Z,6.93
2022-11-18T01:38:20.124Z,6.95
2022-11-18T01:43:58.753Z,6.91
2022-11-18T01:49:37.926Z,6.92
2022-11-18T01:55:10.619Z,6.90
2022-11-18T02:00:41.741Z,6.85
2022-11-18T02:06:24.292Z,6.89
2022-11-18T02:11:56.555Z,6.93
2022-11-18T02:17:35.003Z,6.90
2022-11-18T02:23:31.767Z,7.01
2022-11-18T02:29:14.660Z,6.91
2022-11-18T02:34:46.107Z,6.97
2022-11-18T02:40:20.531Z,7.07
2022-11-18T02:45:55.532Z,7.03
2022-11-18T02:51:24.996Z,6.89
2022-11-18T02:56:50.550Z,6.86
2022-11-18T03:02:22.850Z,6.73
2022-11-18T03:07:54.079Z,6.72
2022-11-18T03:13:32.510Z,6.64
2022-11-18T03:19:12.854Z,6.63
2022-11-18T03:24:56.849Z,6.62
2022-11-18T03:30:23.101Z,6.70
2022-11-18T03:35:56.632Z,6.68
2022-11-18T03:41:27.375Z,6.72
2022-11-18T03:46:56.333Z,6.68
2022-11-18T03:52:57.517Z,6.64
2022-11-18T03:58:30.138Z,6.61
2022-11-18T04:03:58.207Z,6.55
2022-11-18T04:09:32.668Z,6.44
2022-11-18T04:15:00.973Z,6.42
2022-11-18T04:20:28.571Z,6.31
2022-11-18T04:25:57.518Z,6.20
2022-11-18T04:31:43.541Z,6.22
2022-11-18T04:37:17.402Z,6.16
2022-11-18T04:42:45.765Z,6.19
2022-11-18T04:48:19.605Z,6.16
2022-11-18T04:53:52.185Z,6.01
2022-11-18T04:59:23.381Z,5.95
2022-11-18T05:04:47.531Z,5.91
2022-11-18T05:10:22.200Z,5.78
2022-11-18T05:15:54.738Z,5.82
2022-11-18T05:21:31.834Z,5.79
2022-11-18T05:27:26.000Z,5.82
2022-11-18T05:38:47.466Z,5.80
2022-11-18T05:44:21.429Z,5.82
2022-11-18T05:49:46.362Z,5.77
2022-11-18T05:55:14.355Z,5.67
2022-11-18T06:00:46.591Z,5.61
2022-11-18T06:06:16.784Z,5.56
2022-11-18T06:11:52.313Z,5.54
2022-11-18T06:17:30.542Z,5.62
2022-11-18T06:23:03.140Z,5.58
2022-11-18T06:28:31.365Z,5.45
2022-11-18T06:34:04.536Z,5.39
2022-11-18T06:39:37.959Z,5.38
2022-11-18T06:45:05.734Z,5.42
2022-11-18T06:50:38.645Z,5.34
2022-11-18T06:56:21.433Z,5.36
2022-11-18T07:01:50.629Z,5.28
2022-11-18T07:07:14.522Z,5.30
2022-11-18T07:12:44.858Z,5.27
2022-11-18T07:18:14.426Z,5.19
2022-11-18T07:23:58.779Z,5.13
2022-11-18T07:29:25.000Z,5.12
2022-11-18T07:34:50.128Z,5.13
2022-11-18T07:40:17.804Z,5.13
2022-11-18T07:45:45.306Z,5.15
2022-11-18T07:51:11.543Z,5.15
2022-11-18T07:56:35.146Z,5.05
2022-11-18T08:02:05.680Z,5.05
2022-11-18T08:07:34.219Z,4.97
2022-11-18T08:13:04.209Z,4.97
2022-11-18T08:18:32.141Z,4.91
2022-11-18T08:24:18.619Z,4.77
2022-11-18T08:29:44.869Z,4.70
2022-11-18T08:35:21.906Z,4.67
2022-11-18T08:40:55.999Z,4.69
2022-11-18T08:46:33.308Z,4.68
2022-11-18T08:52:02.926Z,4.58
2022-11-18T08:57:33.385Z,4.39
2022-11-18T09:03:11.209Z,4.31
2022-11-18T09:08:38.021Z,4.23
2022-11-18T09:19:51.211Z,4.17
2022-11-18T09:25:31.977Z,4.10
2022-11-18T09:31:14.590Z,4.00
2022-11-18T09:36:41.958Z,3.97
2022-11-18T09:42:29.713Z,3.91
2022-11-18T09:48:10.657Z,3.80
2022-11-18T09:53:37.772Z,3.77
2022-11-18T09:59:23.483Z,3.75
2022-11-18T10:05:12.846Z,3.71
2022-11-18T10:11:05.244Z,3.61
2022-11-18T10:16:47.478Z,3.54
2022-11-18T10:22:30.856Z,3.65
2022-11-18T10:27:56.344Z,3.52
2022-11-18T10:34:08.110Z,3.48
2022-11-18T10:39:51.091Z,3.44
2022-11-18T10:45:25.343Z,3.40
2022-11-18T10:50:59.905Z,3.32
2022-11-18T10:57:02.110Z,3.25
2022-11-18T11:02:44.972Z,3.32
2022-11-18T11:08:37.017Z,3.41
2022-11-18T11:14:41.224Z,3.33
2022-11-18T11:20:27.882Z,3.34
2022-11-18T11:32:02.742Z,3.29
2022-11-18T11:37:41.904Z,3.35
2022-11-18T11:43:37.978Z,3.24
2022-11-18T11:49:24.087Z,3.17
2022-11-18T11:55:12.239Z,3.27
2022-11-18T12:00:52.124Z,3.36
2022-11-18T12:06:33.821Z,3.29
2022-11-18T12:12:21.921Z,3.23
2022-11-18T12:17:59.215Z,3.14
2022-11-18T12:23:32.182Z,3.21
2022-11-18T12:29:19.203Z,3.25
2022-11-18T12:35:03.078Z,3.23
2022-11-18T12:40:51.784Z,3.20
2022-11-18T12:46:49.007Z,3.14
2022-11-18T12:52:56.939Z,3.04
2022-11-18T12:59:11.438Z,2.97
2022-11-18T13:04:47.588Z,2.75
2022-11-18T13:10:33.920Z,2.78
2022-11-18T13:16:19.697Z,2.77
2022-11-18T13:27:49.207Z,2.69
2022-11-18T13:33:35.854Z,2.64
2022-11-18T13:39:10.219Z,2.65
2022-11-18T13:44:46.062Z,2.60
2022-11-18T13:50:26.310Z,2.56
2022-11-18T13:55:57.174Z,2.49
2022-11-18T14:01:30.335Z,2.43
2022-11-18T14:07:25.674Z,2.39
2022-11-18T14:13:06.302Z,2.27
2022-11-18T14:18:39.570Z,2.07
2022-11-18T14:24:32.006Z,2.07
2022-11-18T14:30:01.556Z,2.00
2022-11-18T14:35:50.814Z,2.06
2022-11-18T14:42:17.631Z,2.07
2022-11-18T14:47:50.091Z,1.98
2022-11-18T14:53:19.000Z,1.97
2022-11-18T14:58:53.340Z,2.03
2022-11-18T15:04:35.664Z,2.07
2022-11-18T15:10:12.130Z,2.07
2022-11-18T15:15:47.142Z,2.03
2022-11-18T15:21:14.001Z,1.97
2022-11-18T15:32:44.022Z,1.88
2022-11-18T15:38:24.158Z,1.99
2022-11-18T15:43:50.465Z,1.97
2022-11-18T15:49:24.208Z,1.96
2022-11-18T15:54:50.381Z,2.02
2022-11-18T16:00:18.968Z,1.96
2022-11-18T16:05:58.963Z,1.95
2022-11-18T16:11:45.691Z,1.94
2022-11-18T16:17:08.907Z,1.84
2022-11-18T16:22:38.276Z,1.86
2022-11-18T16:33:48.877Z,1.89
2022-11-18T16:39:53.730Z,1.91
2022-11-18T16:45:22.695Z,1.97
2022-11-18T16:51:36.825Z,1.95
2022-11-18T16:57:06.703Z,1.91
2022-11-18T17:02:39.558Z,1.87
2022-11-18T17:08:12.877Z,1.94
2022-11-18T17:13:40.731Z,1.91
2022-11-18T17:19:12.060Z,2.05
2022-11-18T17:24:38.457Z,2.04
2022-11-18T17:30:05.662Z,2.00
2022-11-18T17:35:34.117Z,2.05
2022-11-18T17:41:06.367Z,2.08
2022-11-18T17:46:53.937Z,2.06
2022-11-18T17:52:29.067Z,2.01
2022-11-18T17:57:59.394Z,1.98
2022-11-18T18:03:27.763Z,1.88
2022-11-18T18:09:00.550Z,1.81
2022-11-18T18:14:27.989Z,1.71
2022-11-18T18:19:59.565Z,1.62
2022-11-18T18:31:12.810Z,1.48
2022-11-18T18:36:45.312Z,1.50
2022-11-18T18:42:08.470Z,1.50
2022-11-18T18:47:36.653Z,1.49
2022-11-18T18:53:09.724Z,1.53
2022-11-18T18:58:46.843Z,1.48
2022-11-18T19:04:19.986Z,1.45
2022-11-18T19:09:58.712Z,1.44
2022-11-18T19:15:36.419Z,1.42
2022-11-18T19:21:16.618Z,1.39
2022-11-18T19:26:54.344Z,1.39
2022-11-18T19:32:21.372Z,1.46
2022-11-18T19:38:00.669Z,1.43
2022-11-18T19:43:34.664Z,1.42
2022-11-18T19:49:02.930Z,1.36
2022-11-18T19:54:33.416Z,1.27
2022-11-18T20:00:36.102Z,1.29
2022-11-18T20:06:06.087Z,1.22
2022-11-18T20:11:34.869Z,1.09
2022-11-18T20:17:09.502Z,1.02
2022-11-18T20:22:58.746Z,1.02
2022-11-18T20:28:47.363Z,1.05
2022-11-18T20:34:17.242Z,1.03
2022-11-18T20:40:02.229Z,1.04
2022-11-18T20:45:31.675Z,1.11
2022-11-18T20:51:09.881Z,1.11
2022-11-18T20:56:41.378Z,1.15
2022-11-18T21:02:16.278Z,1.16
2022-11-18T21:07:51.523Z,1.16
2022-11-18T21:13:36.758Z,1.10
2022-11-18T21:19:03.444Z,1.11
2022-11-18T21:24:36.969Z,1.11
2022-11-18T21:30:22.168Z,1.14
2022-11-18T21:35:49.400Z,1.13
2022-11-18T21:47:13.848Z,1.16
2022-11-18T21:52:45.821Z,1.20
2022-11-18T21:58:18.562Z,1.18
2022-11-18T22:03:55.213Z,1.17
2022-11-18T22:09:19.064Z,1.19
2022-11-18T22:15:02.824Z,1.19
2022-11-18T22:20:32.317Z,1.22
2022-11-18T22:32:05.391Z,1.10
2022-11-18T22:38:01.933Z,1.00
2022-11-18T22:43:37.508Z,0.93
2022-11-18T22:49:03.767Z,0.94
2022-11-18T22:54:40.177Z,0.89
2022-11-18T23:00:21.526Z,0.91
2022-11-18T23:05:51.359Z,0.89
2022-11-18T23:11:40.438Z,0.85
2022-11-18T23:17:10.171Z,0.77
2022-11-18T23:22:37.485Z,0.69
2022-11-18T23:28:18.766Z,0.62
2022-11-18T23:33:44.108Z,0.54
2022-11-18T23:39:22.784Z,0.48
2022-11-18T23:44:48.864Z,0.42
2022-11-18T23:50:24.242Z,0.35
2022-11-18T23:55:48.185Z,0.25
